Kansas City, Missouri
Traffic Map
Current Weather Conditions
Kansas City, Missouri
Clear
Clear
45°
Feels Like: 45°
Wind Chill: 45° Ceiling: Unl
Heat Index: 45° Visibility: 9mi
Dew Point: 37° Wind: 3mph
Humidity: 74% Direction: 210° (SSW)
Pressure: 30.18in Gusts: 0mph
Raw Report DataKMKC 301354Z 21003KT 9SM CLR 07/03 A3018 RMK AO2 SLP220 T00720028
Traffic Incident Summary
Active as of:
Severity:
Category:
InformationThere was an issue retrieving the traffic information for this location. Please try a different location or try again shortly.
Advertisements
Track Severe Weather on mobile